sensor_id;sensor_type;location;lat;lon;timestamp;pressure;altitude;pressure_sealevel;temperature;humidity
39177;BME280;24904;52.208;21.192;2022-07-10T00:01:38;100424.25;;;15.22;68.78
39177;BME280;24904;52.208;21.192;2022-07-10T00:06:44;100423.84;;;15.25;69.03
39177;BME280;24904;52.208;21.192;2022-07-10T00:11:50;100428.15;;;15.28;68.94
39177;BME280;24904;52.208;21.192;2022-07-10T00:16:55;100426.48;;;15.28;68.98
39177;BME280;24904;52.208;21.192;2022-07-10T00:22:00;100425.63;;;15.28;69.08
39177;BME280;24904;52.208;21.192;2022-07-10T00:27:06;100423.44;;;15.25;69.03
39177;BME280;24904;52.208;21.192;2022-07-10T00:32:11;100413.65;;;15.24;69.08
39177;BME280;24904;52.208;21.192;2022-07-10T00:37:16;100409.17;;;15.22;69.14
39177;BME280;24904;52.208;21.192;2022-07-10T00:42:22;100407.20;;;15.19;69.17
39177;BME280;24904;52.208;21.192;2022-07-10T00:47:27;100404.54;;;15.15;69.21
39177;BME280;24904;52.208;21.192;2022-07-10T00:52:32;100395.39;;;15.13;69.31
39177;BME280;24904;52.208;21.192;2022-07-10T00:57:42;100397.71;;;15.09;69.35
39177;BME280;24904;52.208;21.192;2022-07-10T01:02:47;100392.13;;;15.05;69.30
39177;BME280;24904;52.208;21.192;2022-07-10T01:07:52;100388.92;;;15.00;69.42
39177;BME280;24904;52.208;21.192;2022-07-10T01:12:57;100390.48;;;15.01;69.58
39177;BME280;24904;52.208;21.192;2022-07-10T01:18:03;100386.30;;;15.01;69.78
39177;BME280;24904;52.208;21.192;2022-07-10T01:23:08;100381.52;;;14.98;69.98
39177;BME280;24904;52.208;21.192;2022-07-10T01:28:13;100379.86;;;14.97;69.94
39177;BME280;24904;52.208;21.192;2022-07-10T01:33:18;100374.34;;;14.96;69.99
39177;BME280;24904;52.208;21.192;2022-07-10T01:38:23;100371.98;;;14.91;70.06
39177;BME280;24904;52.208;21.192;2022-07-10T01:43:28;100367.37;;;14.85;70.20
39177;BME280;24904;52.208;21.192;2022-07-10T01:48:33;100362.09;;;14.71;70.70
39177;BME280;24904;52.208;21.192;2022-07-10T01:53:39;100351.15;;;14.63;71.15
39177;BME280;24904;52.208;21.192;2022-07-10T01:58:44;100353.88;;;14.58;71.10
39177;BME280;24904;52.208;21.192;2022-07-10T02:03:50;100349.95;;;14.53;71.38
39177;BME280;24904;52.208;21.192;2022-07-10T02:09:12;100347.21;;;14.46;71.50
39177;BME280;24904;52.208;21.192;2022-07-10T02:14:18;100341.13;;;14.27;71.49
39177;BME280;24904;52.208;21.192;2022-07-10T02:19:23;100337.88;;;14.12;71.79
39177;BME280;24904;52.208;21.192;2022-07-10T02:24:28;100337.92;;;14.01;72.03
39177;BME280;24904;52.208;21.192;2022-07-10T02:29:34;100334.00;;;13.96;72.47
39177;BME280;24904;52.208;21.192;2022-07-10T02:34:39;100335.98;;;13.94;72.94
39177;BME280;24904;52.208;21.192;2022-07-10T02:39:44;100332.27;;;13.91;73.36
39177;BME280;24904;52.208;21.192;2022-07-10T02:44:49;100331.23;;;13.90;73.48
39177;BME280;24904;52.208;21.192;2022-07-10T02:49:54;100331.40;;;13.90;73.59
39177;BME280;24904;52.208;21.192;2022-07-10T02:54:59;100326.52;;;13.87;73.78
39177;BME280;24904;52.208;21.192;2022-07-10T03:00:06;100333.37;;;13.92;74.25
39177;BME280;24904;52.208;21.192;2022-07-10T03:05:11;100333.77;;;13.94;74.31
39177;BME280;24904;52.208;21.192;2022-07-10T03:10:16;100333.70;;;13.95;74.33
39177;BME280;24904;52.208;21.192;2022-07-10T03:15:22;100334.15;;;13.97;74.44
39177;BME280;24904;52.208;21.192;2022-07-10T03:20:27;100327.30;;;13.94;74.71
39177;BME280;24904;52.208;21.192;2022-07-10T03:25:32;100324.23;;;13.96;75.02
39177;BME280;24904;52.208;21.192;2022-07-10T03:30:37;100329.95;;;13.99;75.26
39177;BME280;24904;52.208;21.192;2022-07-10T03:35:42;100333.59;;;14.01;75.39
39177;BME280;24904;52.208;21.192;2022-07-10T03:40:47;100332.77;;;14.05;75.36
39177;BME280;24904;52.208;21.192;2022-07-10T03:45:52;100333.79;;;14.12;75.11
39177;BME280;24904;52.208;21.192;2022-07-10T03:50:58;100332.55;;;14.21;74.90
39177;BME280;24904;52.208;21.192;2022-07-10T03:56:03;100332.55;;;14.23;74.60
39177;BME280;24904;52.208;21.192;2022-07-10T04:01:08;100326.23;;;14.24;74.67
39177;BME280;24904;52.208;21.192;2022-07-10T04:06:13;100326.59;;;14.30;74.70
39177;BME280;24904;52.208;21.192;2022-07-10T04:11:19;100321.99;;;14.36;74.71
39177;BME280;24904;52.208;21.192;2022-07-10T04:16:24;100324.89;;;14.40;74.33
39177;BME280;24904;52.208;21.192;2022-07-10T04:21:29;100330.79;;;14.46;74.28
39177;BME280;24904;52.208;21.192;2022-07-10T04:26:34;100330.45;;;14.53;74.06
39177;BME280;24904;52.208;21.192;2022-07-10T04:31:39;100327.48;;;14.63;73.95
39177;BME280;24904;52.208;21.192;2022-07-10T04:36:44;100326.70;;;14.72;73.75
39177;BME280;24904;52.208;21.192;2022-07-10T04:41:49;100327.36;;;14.80;73.31
39177;BME280;24904;52.208;21.192;2022-07-10T04:46:54;100323.98;;;14.89;72.85
39177;BME280;24904;52.208;21.192;2022-07-10T04:51:59;100321.30;;;15.00;72.48
39177;BME280;24904;52.208;21.192;2022-07-10T04:57:05;100322.84;;;15.13;72.24
39177;BME280;24904;52.208;21.192;2022-07-10T05:02:11;100321.92;;;15.22;71.51
39177;BME280;24904;52.208;21.192;2022-07-10T05:07:16;100319.25;;;15.28;70.98
39177;BME280;24904;52.208;21.192;2022-07-10T05:12:21;100320.80;;;15.31;70.61
39177;BME280;24904;52.208;21.192;2022-07-10T05:17:26;100318.23;;;15.34;70.40
39177;BME280;24904;52.208;21.192;2022-07-10T05:22:31;100314.95;;;15.40;70.08
39177;BME280;24904;52.208;21.192;2022-07-10T05:27:36;100312.27;;;15.46;69.93
39177;BME280;24904;52.208;21.192;2022-07-10T05:32:45;100303.69;;;15.51;69.65
39177;BME280;24904;52.208;21.192;2022-07-10T05:37:51;100300.68;;;15.61;69.50
39177;BME280;24904;52.208;21.192;2022-07-10T05:42:56;100295.45;;;15.78;69.03
39177;BME280;24904;52.208;21.192;2022-07-10T05:48:01;100290.37;;;15.93;68.64
39177;BME280;24904;52.208;21.192;2022-07-10T05:53:06;100285.80;;;16.02;67.87
39177;BME280;24904;52.208;21.192;2022-07-10T05:58:11;100288.48;;;16.11;67.63
39177;BME280;24904;52.208;21.192;2022-07-10T06:03:17;100286.38;;;16.20;67.36
39177;BME280;24904;52.208;21.192;2022-07-10T06:08:22;100288.41;;;16.27;66.34
39177;BME280;24904;52.208;21.192;2022-07-10T06:13:27;100292.23;;;16.39;66.46
39177;BME280;24904;52.208;21.192;2022-07-10T06:18:32;100289.81;;;16.46;65.77
39177;BME280;24904;52.208;21.192;2022-07-10T06:23:37;100287.50;;;16.48;65.34
39177;BME280;24904;52.208;21.192;2022-07-10T06:28:42;100288.58;;;16.50;65.36
39177;BME280;24904;52.208;21.192;2022-07-10T06:33:47;100284.17;;;16.53;65.22
39177;BME280;24904;52.208;21.192;2022-07-10T06:38:52;100280.62;;;16.57;65.56
39177;BME280;24904;52.208;21.192;2022-07-10T06:43:57;100281.80;;;16.58;64.81
39177;BME280;24904;52.208;21.192;2022-07-10T06:49:04;100278.37;;;16.54;63.93
39177;BME280;24904;52.208;21.192;2022-07-10T06:54:10;100277.31;;;16.52;63.94
39177;BME280;24904;52.208;21.192;2022-07-10T06:59:15;100279.46;;;16.50;63.57
39177;BME280;24904;52.208;21.192;2022-07-10T07:04:20;100286.32;;;16.47;63.71
39177;BME280;24904;52.208;21.192;2022-07-10T07:09:25;100285.61;;;16.47;64.12
39177;BME280;24904;52.208;21.192;2022-07-10T07:14:30;100287.86;;;16.50;64.63
39177;BME280;24904;52.208;21.192;2022-07-10T07:19:35;100287.83;;;16.57;64.41
39177;BME280;24904;52.208;21.192;2022-07-10T07:24:57;100281.02;;;16.69;64.99
39177;BME280;24904;52.208;21.192;2022-07-10T07:30:05;100277.05;;;16.85;64.82
39177;BME280;24904;52.208;21.192;2022-07-10T07:35:12;100280.85;;;17.01;64.78
39177;BME280;24904;52.208;21.192;2022-07-10T07:40:19;100279.43;;;17.14;64.27
39177;BME280;24904;52.208;21.192;2022-07-10T07:45:26;100274.06;;;17.27;63.91
39177;BME280;24904;52.208;21.192;2022-07-10T07:50:35;100268.55;;;17.41;64.01
39177;BME280;24904;52.208;21.192;2022-07-10T07:55:41;100270.79;;;17.45;63.73
39177;BME280;24904;52.208;21.192;2022-07-10T08:00:46;100269.61;;;17.45;62.99
39177;BME280;24904;52.208;21.192;2022-07-10T08:05:51;100274.02;;;17.37;62.54
39177;BME280;24904;52.208;21.192;2022-07-10T08:10:56;100272.54;;;17.33;61.86
39177;BME280;24904;52.208;21.192;2022-07-10T08:16:01;100270.98;;;17.43;61.94
39177;BME280;24904;52.208;21.192;2022-07-10T08:21:07;100273.66;;;17.61;61.76
39177;BME280;24904;52.208;21.192;2022-07-10T08:26:12;100271.26;;;17.72;61.45
39177;BME280;24904;52.208;21.192;2022-07-10T08:31:17;100270.13;;;17.77;61.54
39177;BME280;24904;52.208;21.192;2022-07-10T08:36:22;100269.76;;;17.80;60.66
39177;BME280;24904;52.208;21.192;2022-07-10T08:41:28;100275.17;;;17.82;60.13
39177;BME280;24904;52.208;21.192;2022-07-10T08:46:34;100271.98;;;17.90;60.35
39177;BME280;24904;52.208;21.192;2022-07-10T08:51:45;100267.44;;;18.07;59.96
39177;BME280;24904;52.208;21.192;2022-07-10T08:56:52;100270.77;;;18.11;59.34
39177;BME280;24904;52.208;21.192;2022-07-10T09:01:58;100268.39;;;18.22;59.40
39177;BME280;24904;52.208;21.192;2022-07-10T09:07:05;100272.53;;;18.46;58.14
39177;BME280;24904;52.208;21.192;2022-07-10T09:12:10;100267.14;;;18.67;58.13
39177;BME280;24904;52.208;21.192;2022-07-10T09:17:15;100271.16;;;18.65;58.34
39177;BME280;24904;52.208;21.192;2022-07-10T09:22:23;100269.86;;;18.56;58.84
39177;BME280;24904;52.208;21.192;2022-07-10T09:27:28;100268.35;;;18.45;58.77
39177;BME280;24904;52.208;21.192;2022-07-10T09:32:33;100261.53;;;18.45;58.87
39177;BME280;24904;52.208;21.192;2022-07-10T09:37:41;100250.98;;;18.61;58.51
39177;BME280;24904;52.208;21.192;2022-07-10T09:42:46;100248.30;;;18.84;58.27
39177;BME280;24904;52.208;21.192;2022-07-10T09:47:58;100244.21;;;18.98;56.80
39177;BME280;24904;52.208;21.192;2022-07-10T09:53:08;100242.68;;;18.90;56.30
39177;BME280;24904;52.208;21.192;2022-07-10T09:58:14;100238.81;;;18.76;56.49
39177;BME280;24904;52.208;21.192;2022-07-10T10:03:21;100248.75;;;18.51;57.07
39177;BME280;24904;52.208;21.192;2022-07-10T10:08:31;100244.29;;;18.25;57.88
39177;BME280;24904;52.208;21.192;2022-07-10T10:13:37;100236.45;;;18.09;57.11
39177;BME280;24904;52.208;21.192;2022-07-10T10:18:44;100228.07;;;18.14;57.58
39177;BME280;24904;52.208;21.192;2022-07-10T10:24:07;100238.23;;;18.15;56.72
39177;BME280;24904;52.208;21.192;2022-07-10T10:29:13;100239.27;;;17.96;55.81
39177;BME280;24904;52.208;21.192;2022-07-10T10:34:41;100238.80;;;17.80;56.07
39177;BME280;24904;52.208;21.192;2022-07-10T10:39:56;100233.27;;;17.70;56.24
39177;BME280;24904;52.208;21.192;2022-07-10T10:45:32;100238.73;;;17.66;56.55
39177;BME280;24904;52.208;21.192;2022-07-10T10:50:42;100236.30;;;17.65;57.22
39177;BME280;24904;52.208;21.192;2022-07-10T10:56:24;100235.31;;;17.63;57.01
39177;BME280;24904;52.208;21.192;2022-07-10T11:01:30;100237.74;;;17.61;56.19
39177;BME280;24904;52.208;21.192;2022-07-10T11:06:43;100230.73;;;17.63;56.23
39177;BME280;24904;52.208;21.192;2022-07-10T11:11:59;100230.97;;;17.90;56.61
39177;BME280;24904;52.208;21.192;2022-07-10T11:17:05;100223.05;;;18.25;54.87
39177;BME280;24904;52.208;21.192;2022-07-10T11:28:08;100231.86;;;18.84;53.54
39177;BME280;24904;52.208;21.192;2022-07-10T11:33:16;100235.03;;;18.88;52.73
39177;BME280;24904;52.208;21.192;2022-07-10T11:38:23;100226.04;;;18.85;52.46
39177;BME280;24904;52.208;21.192;2022-07-10T11:43:29;100226.30;;;18.96;52.83
39177;BME280;24904;52.208;21.192;2022-07-10T11:48:39;100229.30;;;19.12;53.08
39177;BME280;24904;52.208;21.192;2022-07-10T11:53:54;100226.86;;;19.11;52.28
39177;BME280;24904;52.208;21.192;2022-07-10T11:59:01;100228.15;;;19.08;51.23
39177;BME280;24904;52.208;21.192;2022-07-10T12:04:07;100222.38;;;19.12;50.38
39177;BME280;24904;52.208;21.192;2022-07-10T12:09:14;100219.20;;;19.27;51.25
39177;BME280;24904;52.208;21.192;2022-07-10T12:14:20;100217.33;;;19.41;50.81
39177;BME280;24904;52.208;21.192;2022-07-10T12:19:28;100211.39;;;19.51;50.59
39177;BME280;24904;52.208;21.192;2022-07-10T12:24:36;100199.69;;;19.56;50.97
39177;BME280;24904;52.208;21.192;2022-07-10T12:29:42;100205.61;;;19.50;50.67
39177;BME280;24904;52.208;21.192;2022-07-10T12:34:47;100209.30;;;19.37;51.62
39177;BME280;24904;52.208;21.192;2022-07-10T12:39:58;100211.30;;;19.34;52.72
39177;BME280;24904;52.208;21.192;2022-07-10T12:45:12;100210.41;;;19.46;51.90
39177;BME280;24904;52.208;21.192;2022-07-10T12:50:18;100210.58;;;19.61;51.08
39177;BME280;24904;52.208;21.192;2022-07-10T12:55:23;100214.85;;;19.70;50.37
39177;BME280;24904;52.208;21.192;2022-07-10T13:00:30;100214.48;;;19.77;51.50
39177;BME280;24904;52.208;21.192;2022-07-10T13:05:39;100222.71;;;19.85;51.22
39177;BME280;24904;52.208;21.192;2022-07-10T13:10:51;100234.39;;;19.66;50.27
39177;BME280;24904;52.208;21.192;2022-07-10T13:15:56;100237.22;;;19.44;49.60
39177;BME280;24904;52.208;21.192;2022-07-10T13:21:04;100241.62;;;19.25;50.49
39177;BME280;24904;52.208;21.192;2022-07-10T13:26:10;100244.04;;;19.18;52.28
39177;BME280;24904;52.208;21.192;2022-07-10T13:31:16;100241.33;;;19.18;53.35
39177;BME280;24904;52.208;21.192;2022-07-10T13:36:21;100240.33;;;19.22;53.33
39177;BME280;24904;52.208;21.192;2022-07-10T13:41:26;100247.64;;;19.20;53.17
39177;BME280;24904;52.208;21.192;2022-07-10T13:46:32;100256.02;;;19.12;53.25
39177;BME280;24904;52.208;21.192;2022-07-10T13:51:37;100271.10;;;18.95;53.42
39177;BME280;24904;52.208;21.192;2022-07-10T13:56:42;100277.33;;;18.70;53.12
39177;BME280;24904;52.208;21.192;2022-07-10T14:01:47;100272.91;;;18.40;53.27
39177;BME280;24904;52.208;21.192;2022-07-10T14:06:52;100274.71;;;18.12;53.40
39177;BME280;24904;52.208;21.192;2022-07-10T14:11:58;100275.10;;;17.86;54.33
39177;BME280;24904;52.208;21.192;2022-07-10T14:17:03;100275.33;;;17.61;55.92
39177;BME280;24904;52.208;21.192;2022-07-10T14:22:09;100272.67;;;17.37;57.69
39177;BME280;24904;52.208;21.192;2022-07-10T14:27:14;100275.23;;;17.33;59.04
39177;BME280;24904;52.208;21.192;2022-07-10T14:32:19;100275.64;;;17.45;59.49
39177;BME280;24904;52.208;21.192;2022-07-10T14:37:24;100277.33;;;17.60;58.71
39177;BME280;24904;52.208;21.192;2022-07-10T14:42:29;100278.32;;;17.72;58.39
39177;BME280;24904;52.208;21.192;2022-07-10T14:47:35;100280.45;;;17.85;58.72
39177;BME280;24904;52.208;21.192;2022-07-10T14:52:40;100279.77;;;17.94;58.62
39177;BME280;24904;52.208;21.192;2022-07-10T14:57:45;100280.20;;;18.00;58.83
39177;BME280;24904;52.208;21.192;2022-07-10T15:02:51;100286.41;;;17.99;59.07
39177;BME280;24904;52.208;21.192;2022-07-10T15:07:56;100281.72;;;17.93;59.18
39177;BME280;24904;52.208;21.192;2022-07-10T15:13:02;100290.83;;;17.86;58.74
39177;BME280;24904;52.208;21.192;2022-07-10T15:18:09;100291.66;;;17.80;58.04
39177;BME280;24904;52.208;21.192;2022-07-10T15:23:15;100296.46;;;17.73;57.15
39177;BME280;24904;52.208;21.192;2022-07-10T15:28:20;100299.39;;;17.69;56.52
39177;BME280;24904;52.208;21.192;2022-07-10T15:33:25;100299.16;;;17.63;56.27
39177;BME280;24904;52.208;21.192;2022-07-10T15:38:30;100302.72;;;17.60;56.43
39177;BME280;24904;52.208;21.192;2022-07-10T15:43:35;100309.11;;;17.57;56.44
39177;BME280;24904;52.208;21.192;2022-07-10T15:48:40;100311.96;;;17.53;57.28
39177;BME280;24904;52.208;21.192;2022-07-10T15:53:46;100318.98;;;17.47;57.65
39177;BME280;24904;52.208;21.192;2022-07-10T15:58:51;100311.95;;;17.37;58.34
39177;BME280;24904;52.208;21.192;2022-07-10T16:03:56;100305.34;;;17.33;58.87
39177;BME280;24904;52.208;21.192;2022-07-10T16:09:01;100304.17;;;17.27;59.25
39177;BME280;24904;52.208;21.192;2022-07-10T16:14:06;100300.54;;;17.22;59.93
39177;BME280;24904;52.208;21.192;2022-07-10T16:19:11;100298.55;;;17.19;59.92
39177;BME280;24904;52.208;21.192;2022-07-10T16:24:17;100293.62;;;17.19;60.27
39177;BME280;24904;52.208;21.192;2022-07-10T16:29:22;100294.19;;;17.23;60.48
39177;BME280;24904;52.208;21.192;2022-07-10T16:34:29;100294.94;;;17.20;58.92
39177;BME280;24904;52.208;21.192;2022-07-10T16:39:34;100284.48;;;17.15;58.54
39177;BME280;24904;52.208;21.192;2022-07-10T16:44:40;100284.59;;;17.05;58.42
39177;BME280;24904;52.208;21.192;2022-07-10T16:49:45;100287.36;;;16.99;58.93
39177;BME280;24904;52.208;21.192;2022-07-10T16:54:50;100295.86;;;16.94;58.93
39177;BME280;24904;52.208;21.192;2022-07-10T16:59:55;100302.14;;;16.82;59.26
39177;BME280;24904;52.208;21.192;2022-07-10T17:05:00;100305.63;;;16.72;59.78
39177;BME280;24904;52.208;21.192;2022-07-10T17:10:07;100311.79;;;16.66;59.98
39177;BME280;24904;52.208;21.192;2022-07-10T17:15:13;100313.44;;;16.62;59.69
39177;BME280;24904;52.208;21.192;2022-07-10T17:20:18;100324.32;;;16.58;59.46
39177;BME280;24904;52.208;21.192;2022-07-10T17:25:24;100331.21;;;16.54;59.23
39177;BME280;24904;52.208;21.192;2022-07-10T17:30:30;100340.17;;;16.47;58.90
39177;BME280;24904;52.208;21.192;2022-07-10T17:35:35;100343.55;;;16.37;58.64
39177;BME280;24904;52.208;21.192;2022-07-10T17:40:40;100349.02;;;16.30;58.41
39177;BME280;24904;52.208;21.192;2022-07-10T17:45:46;100350.34;;;16.26;58.74
39177;BME280;24904;52.208;21.192;2022-07-10T17:50:51;100355.55;;;16.20;58.98
39177;BME280;24904;52.208;21.192;2022-07-10T17:55:56;100353.23;;;16.10;58.91
39177;BME280;24904;52.208;21.192;2022-07-10T18:01:02;100350.86;;;16.01;59.29
39177;BME280;24904;52.208;21.192;2022-07-10T18:06:07;100351.51;;;15.95;59.57
39177;BME280;24904;52.208;21.192;2022-07-10T18:11:12;100359.55;;;15.88;60.06
39177;BME280;24904;52.208;21.192;2022-07-10T18:16:18;100367.89;;;15.79;60.34
39177;BME280;24904;52.208;21.192;2022-07-10T18:21:24;100374.22;;;15.70;60.69
39177;BME280;24904;52.208;21.192;2022-07-10T18:26:30;100377.80;;;15.60;61.22
39177;BME280;24904;52.208;21.192;2022-07-10T18:31:36;100381.50;;;15.50;61.29
39177;BME280;24904;52.208;21.192;2022-07-10T18:36:41;100381.80;;;15.41;61.94
39177;BME280;24904;52.208;21.192;2022-07-10T18:41:46;100386.15;;;15.31;62.17
39177;BME280;24904;52.208;21.192;2022-07-10T18:46:52;100382.00;;;15.18;62.62
39177;BME280;24904;52.208;21.192;2022-07-10T18:51:59;100392.92;;;15.14;62.86
39177;BME280;24904;52.208;21.192;2022-07-10T18:57:05;100389.98;;;15.06;63.28
39177;BME280;24904;52.208;21.192;2022-07-10T19:02:12;100391.70;;;14.98;63.44
39177;BME280;24904;52.208;21.192;2022-07-10T19:07:17;100397.52;;;14.90;63.96
39177;BME280;24904;52.208;21.192;2022-07-10T19:12:22;100404.02;;;14.84;64.23
39177;BME280;24904;52.208;21.192;2022-07-10T19:17:28;100407.70;;;14.76;64.58
39177;BME280;24904;52.208;21.192;2022-07-10T19:22:35;100412.55;;;14.69;64.75
39177;BME280;24904;52.208;21.192;2022-07-10T19:27:40;100414.47;;;14.64;65.06
39177;BME280;24904;52.208;21.192;2022-07-10T19:32:45;100410.56;;;14.57;65.26
39177;BME280;24904;52.208;21.192;2022-07-10T19:37:51;100406.50;;;14.46;65.63
39177;BME280;24904;52.208;21.192;2022-07-10T19:42:56;100415.11;;;14.40;65.94
39177;BME280;24904;52.208;21.192;2022-07-10T19:48:02;100419.48;;;14.29;66.15
39177;BME280;24904;52.208;21.192;2022-07-10T19:53:08;100418.95;;;14.24;66.74
39177;BME280;24904;52.208;21.192;2022-07-10T19:58:14;100417.45;;;14.19;67.01
39177;BME280;24904;52.208;21.192;2022-07-10T20:03:20;100421.35;;;14.12;67.46
39177;BME280;24904;52.208;21.192;2022-07-10T20:08:25;100425.55;;;14.07;67.73
39177;BME280;24904;52.208;21.192;2022-07-10T20:13:30;100435.02;;;13.99;68.15
39177;BME280;24904;52.208;21.192;2022-07-10T20:18:35;100435.02;;;13.93;68.46
39177;BME280;24904;52.208;21.192;2022-07-10T20:23:41;100441.04;;;13.85;69.11
39177;BME280;24904;52.208;21.192;2022-07-10T20:28:47;100449.33;;;13.80;69.27
39177;BME280;24904;52.208;21.192;2022-07-10T20:33:52;100450.59;;;13.82;69.61
39177;BME280;24904;52.208;21.192;2022-07-10T20:38:58;100445.61;;;13.78;69.98
39177;BME280;24904;52.208;21.192;2022-07-10T20:44:04;100446.09;;;13.74;70.25
39177;BME280;24904;52.208;21.192;2022-07-10T20:49:09;100442.15;;;13.71;70.50
39177;BME280;24904;52.208;21.192;2022-07-10T20:54:15;100440.52;;;13.69;70.72
39177;BME280;24904;52.208;21.192;2022-07-10T20:59:21;100448.95;;;13.69;71.07
39177;BME280;24904;52.208;21.192;2022-07-10T21:04:26;100444.21;;;13.65;71.19
39177;BME280;24904;52.208;21.192;2022-07-10T21:09:33;100445.30;;;13.64;71.40
39177;BME280;24904;52.208;21.192;2022-07-10T21:14:39;100441.83;;;13.62;71.61
39177;BME280;24904;52.208;21.192;2022-07-10T21:19:45;100435.77;;;13.60;71.83
39177;BME280;24904;52.208;21.192;2022-07-10T21:24:51;100437.98;;;13.57;71.84
39177;BME280;24904;52.208;21.192;2022-07-10T21:29:57;100442.24;;;13.54;71.99
39177;BME280;24904;52.208;21.192;2022-07-10T21:35:03;100450.98;;;13.47;72.14
39177;BME280;24904;52.208;21.192;2022-07-10T21:40:11;100448.85;;;13.43;72.35
39177;BME280;24904;52.208;21.192;2022-07-10T21:45:17;100455.95;;;13.43;72.51
39177;BME280;24904;52.208;21.192;2022-07-10T21:50:23;100451.85;;;13.41;72.58
39177;BME280;24904;52.208;21.192;2022-07-10T21:55:29;100461.08;;;13.42;72.76
39177;BME280;24904;52.208;21.192;2022-07-10T22:00:38;100461.05;;;13.36;72.84
39177;BME280;24904;52.208;21.192;2022-07-10T22:05:45;100462.47;;;13.31;73.05
39177;BME280;24904;52.208;21.192;2022-07-10T22:10:53;100464.75;;;13.28;73.26
39177;BME280;24904;52.208;21.192;2022-07-10T22:15:59;100465.14;;;13.23;73.47
39177;BME280;24904;52.208;21.192;2022-07-10T22:21:06;100465.29;;;13.21;73.65
39177;BME280;24904;52.208;21.192;2022-07-10T22:26:11;100468.11;;;13.18;73.94
39177;BME280;24904;52.208;21.192;2022-07-10T22:31:18;100466.30;;;13.18;74.09
39177;BME280;24904;52.208;21.192;2022-07-10T22:36:27;100467.23;;;13.14;74.31
39177;BME280;24904;52.208;21.192;2022-07-10T22:41:33;100470.29;;;13.11;74.55
39177;BME280;24904;52.208;21.192;2022-07-10T22:46:40;100464.22;;;13.12;74.71
39177;BME280;24904;52.208;21.192;2022-07-10T22:51:46;100465.48;;;13.12;74.90
39177;BME280;24904;52.208;21.192;2022-07-10T22:56:53;100460.38;;;13.11;74.91
39177;BME280;24904;52.208;21.192;2022-07-10T23:02:03;100461.05;;;13.08;75.03
39177;BME280;24904;52.208;21.192;2022-07-10T23:07:09;100462.63;;;13.06;75.18
39177;BME280;24904;52.208;21.192;2022-07-10T23:12:16;100461.83;;;13.04;75.23
39177;BME280;24904;52.208;21.192;2022-07-10T23:17:23;100457.19;;;13.00;75.15
39177;BME280;24904;52.208;21.192;2022-07-10T23:22:30;100459.08;;;12.99;75.28
39177;BME280;24904;52.208;21.192;2022-07-10T23:27:37;100461.52;;;13.00;75.30
39177;BME280;24904;52.208;21.192;2022-07-10T23:32:44;100458.89;;;12.94;75.24
39177;BME280;24904;52.208;21.192;2022-07-10T23:37:53;100459.36;;;12.92;75.30
39177;BME280;24904;52.208;21.192;2022-07-10T23:43:00;100460.38;;;12.91;75.42
39177;BME280;24904;52.208;21.192;2022-07-10T23:48:08;100462.27;;;12.88;75.22
39177;BME280;24904;52.208;21.192;2022-07-10T23:53:17;100464.00;;;12.84;75.37
39177;BME280;24904;52.208;21.192;2022-07-10T23:58:24;100460.28;;;12.82;75.24
